sensor_id;sensor_type;location;lat;lon;timestamp;temperature;humidity
25360;DHT22;13311;51.386;0.016;2022-12-19T00:01:43;10.90;99.90
25360;DHT22;13311;51.386;0.016;2022-12-19T00:06:44;11.00;99.90
25360;DHT22;13311;51.386;0.016;2022-12-19T00:11:46;11.00;99.90
25360;DHT22;13311;51.386;0.016;2022-12-19T00:16:47;11.10;99.90
25360;DHT22;13311;51.386;0.016;2022-12-19T00:21:48;11.20;99.90
25360;DHT22;13311;51.386;0.016;2022-12-19T00:26:49;11.30;99.90
25360;DHT22;13311;51.386;0.016;2022-12-19T00:31:49;11.40;99.90
25360;DHT22;13311;51.386;0.016;2022-12-19T00:36:50;11.40;99.90
25360;DHT22;13311;51.386;0.016;2022-12-19T00:41:51;11.50;99.90
25360;DHT22;13311;51.386;0.016;2022-12-19T00:46:51;11.60;99.90
25360;DHT22;13311;51.386;0.016;2022-12-19T00:51:52;11.60;99.90
25360;DHT22;13311;51.386;0.016;2022-12-19T00:56:56;11.70;99.90
25360;DHT22;13311;51.386;0.016;2022-12-19T01:01:57;11.90;99.90
25360;DHT22;13311;51.386;0.016;2022-12-19T01:06:58;11.80;99.90
25360;DHT22;13311;51.386;0.016;2022-12-19T01:11:59;11.90;99.90
25360;DHT22;13311;51.386;0.016;2022-12-19T01:17:19;12.00;99.90
25360;DHT22;13311;51.386;0.016;2022-12-19T01:22:20;12.10;99.90
25360;DHT22;13311;51.386;0.016;2022-12-19T01:27:20;12.20;99.90
25360;DHT22;13311;51.386;0.016;2022-12-19T01:32:21;12.20;99.90
25360;DHT22;13311;51.386;0.016;2022-12-19T01:37:22;12.20;99.90
25360;DHT22;13311;51.386;0.016;2022-12-19T01:42:23;12.20;99.90
25360;DHT22;13311;51.386;0.016;2022-12-19T01:47:24;12.30;99.90
25360;DHT22;13311;51.386;0.016;2022-12-19T01:52:24;12.30;99.90
25360;DHT22;13311;51.386;0.016;2022-12-19T01:57:25;12.40;99.90
25360;DHT22;13311;51.386;0.016;2022-12-19T02:02:32;12.40;99.90
25360;DHT22;13311;51.386;0.016;2022-12-19T02:07:36;12.40;99.90
25360;DHT22;13311;51.386;0.016;2022-12-19T02:12:40;12.50;99.90
25360;DHT22;13311;51.386;0.016;2022-12-19T02:23:17;12.60;99.90
25360;DHT22;13311;51.386;0.016;2022-12-19T02:28:50;12.60;99.90
25360;DHT22;13311;51.386;0.016;2022-12-19T02:44:50;12.80;99.90
25360;DHT22;13311;51.386;0.016;2022-12-19T02:49:51;12.80;99.90
25360;DHT22;13311;51.386;0.016;2022-12-19T02:54:56;12.80;99.90
25360;DHT22;13311;51.386;0.016;2022-12-19T03:00:17;12.80;99.90
25360;DHT22;13311;51.386;0.016;2022-12-19T03:05:35;12.80;99.90
25360;DHT22;13311;51.386;0.016;2022-12-19T03:16:09;12.90;99.90
25360;DHT22;13311;51.386;0.016;2022-12-19T03:26:48;13.00;99.90
25360;DHT22;13311;51.386;0.016;2022-12-19T03:31:59;12.90;99.90
25360;DHT22;13311;51.386;0.016;2022-12-19T03:37:04;13.00;99.90
25360;DHT22;13311;51.386;0.016;2022-12-19T03:42:08;13.00;99.90
25360;DHT22;13311;51.386;0.016;2022-12-19T03:47:45;13.10;99.90
25360;DHT22;13311;51.386;0.016;2022-12-19T03:58:12;13.10;99.90
25360;DHT22;13311;51.386;0.016;2022-12-19T04:03:17;13.10;99.90
25360;DHT22;13311;51.386;0.016;2022-12-19T04:08:19;13.10;99.90
25360;DHT22;13311;51.386;0.016;2022-12-19T04:13:48;13.10;99.90
25360;DHT22;13311;51.386;0.016;2022-12-19T04:19:07;13.10;99.90
25360;DHT22;13311;51.386;0.016;2022-12-19T04:24:17;13.20;99.90
25360;DHT22;13311;51.386;0.016;2022-12-19T04:29:19;13.30;99.90
25360;DHT22;13311;51.386;0.016;2022-12-19T04:34:20;13.10;99.90
25360;DHT22;13311;51.386;0.016;2022-12-19T04:39:21;13.20;99.90
25360;DHT22;13311;51.386;0.016;2022-12-19T04:44:21;13.30;99.90
25360;DHT22;13311;51.386;0.016;2022-12-19T04:49:22;13.30;99.90
25360;DHT22;13311;51.386;0.016;2022-12-19T04:54:23;13.30;99.90
25360;DHT22;13311;51.386;0.016;2022-12-19T04:59:24;13.40;99.90
25360;DHT22;13311;51.386;0.016;2022-12-19T05:04:25;13.40;99.90
25360;DHT22;13311;51.386;0.016;2022-12-19T05:09:27;13.50;99.90
25360;DHT22;13311;51.386;0.016;2022-12-19T05:14:27;13.40;99.90
25360;DHT22;13311;51.386;0.016;2022-12-19T05:19:28;13.40;99.90
25360;DHT22;13311;51.386;0.016;2022-12-19T05:24:29;13.40;99.90
25360;DHT22;13311;51.386;0.016;2022-12-19T05:29:29;13.30;99.90
25360;DHT22;13311;51.386;0.016;2022-12-19T05:34:30;13.30;99.90
25360;DHT22;13311;51.386;0.016;2022-12-19T05:39:31;13.40;99.90
25360;DHT22;13311;51.386;0.016;2022-12-19T05:44:32;13.30;99.90
25360;DHT22;13311;51.386;0.016;2022-12-19T05:49:32;13.30;99.90
25360;DHT22;13311;51.386;0.016;2022-12-19T05:54:33;13.30;99.90
25360;DHT22;13311;51.386;0.016;2022-12-19T05:59:34;13.40;99.90
25360;DHT22;13311;51.386;0.016;2022-12-19T06:04:36;13.40;99.90
25360;DHT22;13311;51.386;0.016;2022-12-19T06:09:36;13.50;99.90
25360;DHT22;13311;51.386;0.016;2022-12-19T06:14:37;13.50;99.90
25360;DHT22;13311;51.386;0.016;2022-12-19T06:19:38;13.50;99.90
25360;DHT22;13311;51.386;0.016;2022-12-19T06:24:40;13.60;99.90
25360;DHT22;13311;51.386;0.016;2022-12-19T06:29:40;13.50;99.90
25360;DHT22;13311;51.386;0.016;2022-12-19T06:34:41;13.60;99.90
25360;DHT22;13311;51.386;0.016;2022-12-19T06:39:42;13.50;99.90
25360;DHT22;13311;51.386;0.016;2022-12-19T06:44:43;13.50;99.90
25360;DHT22;13311;51.386;0.016;2022-12-19T06:49:43;13.50;99.90
25360;DHT22;13311;51.386;0.016;2022-12-19T06:54:44;13.60;99.90
25360;DHT22;13311;51.386;0.016;2022-12-19T06:59:45;13.70;99.90
25360;DHT22;13311;51.386;0.016;2022-12-19T07:04:48;13.70;99.90
25360;DHT22;13311;51.386;0.016;2022-12-19T07:09:51;13.70;99.90
25360;DHT22;13311;51.386;0.016;2022-12-19T07:14:52;13.60;99.90
25360;DHT22;13311;51.386;0.016;2022-12-19T07:19:55;13.70;99.90
25360;DHT22;13311;51.386;0.016;2022-12-19T07:24:57;13.60;99.90
25360;DHT22;13311;51.386;0.016;2022-12-19T07:29:58;13.70;99.90
25360;DHT22;13311;51.386;0.016;2022-12-19T07:34:58;13.80;99.90
25360;DHT22;13311;51.386;0.016;2022-12-19T07:39:59;13.70;99.90
25360;DHT22;13311;51.386;0.016;2022-12-19T07:45:00;13.70;99.90
25360;DHT22;13311;51.386;0.016;2022-12-19T07:50:01;13.60;99.90
25360;DHT22;13311;51.386;0.016;2022-12-19T07:55:02;13.60;99.90
25360;DHT22;13311;51.386;0.016;2022-12-19T08:00:03;13.70;99.90
25360;DHT22;13311;51.386;0.016;2022-12-19T08:05:05;13.70;99.90
25360;DHT22;13311;51.386;0.016;2022-12-19T08:10:06;13.70;99.90
25360;DHT22;13311;51.386;0.016;2022-12-19T08:15:08;13.60;99.90
25360;DHT22;13311;51.386;0.016;2022-12-19T08:20:10;13.60;99.90
25360;DHT22;13311;51.386;0.016;2022-12-19T08:25:11;13.70;99.90
25360;DHT22;13311;51.386;0.016;2022-12-19T08:30:12;13.70;99.90
25360;DHT22;13311;51.386;0.016;2022-12-19T08:35:14;13.70;99.90
25360;DHT22;13311;51.386;0.016;2022-12-19T08:40:15;13.60;99.90
25360;DHT22;13311;51.386;0.016;2022-12-19T08:45:16;13.50;99.90
25360;DHT22;13311;51.386;0.016;2022-12-19T08:50:17;13.60;99.90
25360;DHT22;13311;51.386;0.016;2022-12-19T08:55:18;13.60;99.90
25360;DHT22;13311;51.386;0.016;2022-12-19T09:00:19;13.60;99.90
25360;DHT22;13311;51.386;0.016;2022-12-19T09:05:20;13.60;99.90
25360;DHT22;13311;51.386;0.016;2022-12-19T09:10:20;13.70;99.90
25360;DHT22;13311;51.386;0.016;2022-12-19T09:15:22;13.80;99.90
25360;DHT22;13311;51.386;0.016;2022-12-19T09:20:22;13.80;99.90
25360;DHT22;13311;51.386;0.016;2022-12-19T09:25:23;13.80;99.90
25360;DHT22;13311;51.386;0.016;2022-12-19T09:30:24;13.90;99.90
25360;DHT22;13311;51.386;0.016;2022-12-19T09:35:25;13.90;99.90
25360;DHT22;13311;51.386;0.016;2022-12-19T09:40:29;13.90;99.90
25360;DHT22;13311;51.386;0.016;2022-12-19T09:45:59;13.80;99.90
25360;DHT22;13311;51.386;0.016;2022-12-19T09:51:17;13.90;99.90
25360;DHT22;13311;51.386;0.016;2022-12-19T09:56:27;13.80;99.90
25360;DHT22;13311;51.386;0.016;2022-12-19T10:01:36;13.70;99.90
25360;DHT22;13311;51.386;0.016;2022-12-19T10:06:44;13.80;99.90
25360;DHT22;13311;51.386;0.016;2022-12-19T10:12:38;13.70;99.90
25360;DHT22;13311;51.386;0.016;2022-12-19T10:23:43;13.70;99.90
25360;DHT22;13311;51.386;0.016;2022-12-19T10:34:54;13.80;99.90
25360;DHT22;13311;51.386;0.016;2022-12-19T10:45:22;13.70;99.90
25360;DHT22;13311;51.386;0.016;2022-12-19T10:50:26;13.70;99.90
25360;DHT22;13311;51.386;0.016;2022-12-19T11:01:10;13.80;99.90
25360;DHT22;13311;51.386;0.016;2022-12-19T11:11:34;13.70;99.90
25360;DHT22;13311;51.386;0.016;2022-12-19T11:16:36;13.70;99.90
25360;DHT22;13311;51.386;0.016;2022-12-19T11:21:38;13.70;99.90
25360;DHT22;13311;51.386;0.016;2022-12-19T11:26:47;13.70;99.90
25360;DHT22;13311;51.386;0.016;2022-12-19T11:32:00;13.70;99.90
25360;DHT22;13311;51.386;0.016;2022-12-19T11:37:28;13.80;99.90
25360;DHT22;13311;51.386;0.016;2022-12-19T11:48:23;13.90;99.90
25360;DHT22;13311;51.386;0.016;2022-12-19T11:59:35;13.90;99.90
25360;DHT22;13311;51.386;0.016;2022-12-19T12:21:18;13.90;99.90
25360;DHT22;13311;51.386;0.016;2022-12-19T12:26:45;13.90;99.90
25360;DHT22;13311;51.386;0.016;2022-12-19T12:37:54;14.00;99.90
25360;DHT22;13311;51.386;0.016;2022-12-19T12:49:03;14.00;99.90
25360;DHT22;13311;51.386;0.016;2022-12-19T12:54:10;13.90;99.90
25360;DHT22;13311;51.386;0.016;2022-12-19T12:59:24;14.10;99.90
25360;DHT22;13311;51.386;0.016;2022-12-19T13:04:35;14.00;99.90
25360;DHT22;13311;51.386;0.016;2022-12-19T13:09:42;13.90;99.90
25360;DHT22;13311;51.386;0.016;2022-12-19T13:14:46;14.00;99.90
25360;DHT22;13311;51.386;0.016;2022-12-19T13:19:54;14.00;99.90
25360;DHT22;13311;51.386;0.016;2022-12-19T13:24:57;14.00;99.90
25360;DHT22;13311;51.386;0.016;2022-12-19T13:35:01;14.20;99.90
25360;DHT22;13311;51.386;0.016;2022-12-19T13:40:25;14.10;99.90
25360;DHT22;13311;51.386;0.016;2022-12-19T13:45:32;14.20;99.90
25360;DHT22;13311;51.386;0.016;2022-12-19T13:50:38;14.20;99.90
25360;DHT22;13311;51.386;0.016;2022-12-19T13:55:39;14.10;99.90
25360;DHT22;13311;51.386;0.016;2022-12-19T14:00:41;14.10;99.90
25360;DHT22;13311;51.386;0.016;2022-12-19T14:05:42;14.10;99.90
25360;DHT22;13311;51.386;0.016;2022-12-19T14:10:45;14.10;99.90
25360;DHT22;13311;51.386;0.016;2022-12-19T14:15:49;14.10;99.90
25360;DHT22;13311;51.386;0.016;2022-12-19T14:21:06;14.10;99.90
25360;DHT22;13311;51.386;0.016;2022-12-19T14:26:26;14.20;99.90
25360;DHT22;13311;51.386;0.016;2022-12-19T14:31:28;14.10;99.90
25360;DHT22;13311;51.386;0.016;2022-12-19T14:36:31;14.10;99.90
25360;DHT22;13311;51.386;0.016;2022-12-19T14:41:46;14.00;99.90
25360;DHT22;13311;51.386;0.016;2022-12-19T14:47:13;14.10;99.90
25360;DHT22;13311;51.386;0.016;2022-12-19T14:52:50;14.00;99.90
25360;DHT22;13311;51.386;0.016;2022-12-19T14:58:08;14.10;99.90
25360;DHT22;13311;51.386;0.016;2022-12-19T15:03:22;14.10;99.90
25360;DHT22;13311;51.386;0.016;2022-12-19T15:08:28;14.10;99.90
25360;DHT22;13311;51.386;0.016;2022-12-19T15:13:30;14.20;99.90
25360;DHT22;13311;51.386;0.016;2022-12-19T15:23:32;14.20;99.90
25360;DHT22;13311;51.386;0.016;2022-12-19T15:28:43;14.20;99.90
25360;DHT22;13311;51.386;0.016;2022-12-19T15:33:47;14.20;99.90
25360;DHT22;13311;51.386;0.016;2022-12-19T15:38:49;14.10;99.90
25360;DHT22;13311;51.386;0.016;2022-12-19T15:43:51;14.10;99.90
25360;DHT22;13311;51.386;0.016;2022-12-19T15:48:52;14.10;99.90
25360;DHT22;13311;51.386;0.016;2022-12-19T15:53:53;14.10;99.90
25360;DHT22;13311;51.386;0.016;2022-12-19T15:58:56;14.10;99.90
25360;DHT22;13311;51.386;0.016;2022-12-19T16:03:59;14.10;99.90
25360;DHT22;13311;51.386;0.016;2022-12-19T16:09:00;14.00;99.90
25360;DHT22;13311;51.386;0.016;2022-12-19T16:14:01;14.00;99.90
25360;DHT22;13311;51.386;0.016;2022-12-19T16:19:01;14.00;99.90
25360;DHT22;13311;51.386;0.016;2022-12-19T16:24:02;14.00;99.90
25360;DHT22;13311;51.386;0.016;2022-12-19T16:29:03;14.00;99.90
25360;DHT22;13311;51.386;0.016;2022-12-19T16:34:13;14.00;99.90
25360;DHT22;13311;51.386;0.016;2022-12-19T16:39:16;14.10;99.90
25360;DHT22;13311;51.386;0.016;2022-12-19T16:44:19;14.20;99.90
25360;DHT22;13311;51.386;0.016;2022-12-19T16:49:21;14.30;99.90
25360;DHT22;13311;51.386;0.016;2022-12-19T16:54:22;14.30;99.90
25360;DHT22;13311;51.386;0.016;2022-12-19T16:59:29;14.30;99.90
25360;DHT22;13311;51.386;0.016;2022-12-19T17:04:30;14.30;99.90
25360;DHT22;13311;51.386;0.016;2022-12-19T17:09:31;14.20;99.90
25360;DHT22;13311;51.386;0.016;2022-12-19T17:14:32;14.30;99.90
25360;DHT22;13311;51.386;0.016;2022-12-19T17:19:36;14.30;99.90
25360;DHT22;13311;51.386;0.016;2022-12-19T17:24:38;14.40;99.90
25360;DHT22;13311;51.386;0.016;2022-12-19T17:29:39;14.50;99.90
25360;DHT22;13311;51.386;0.016;2022-12-19T17:34:40;14.60;99.90
25360;DHT22;13311;51.386;0.016;2022-12-19T17:39:41;14.60;99.90
25360;DHT22;13311;51.386;0.016;2022-12-19T17:44:41;14.60;99.90
25360;DHT22;13311;51.386;0.016;2022-12-19T17:49:42;14.60;99.90
25360;DHT22;13311;51.386;0.016;2022-12-19T17:54:43;14.60;99.90
25360;DHT22;13311;51.386;0.016;2022-12-19T17:59:44;14.60;99.90
25360;DHT22;13311;51.386;0.016;2022-12-19T18:04:48;14.60;99.90
25360;DHT22;13311;51.386;0.016;2022-12-19T18:09:50;14.60;99.90
25360;DHT22;13311;51.386;0.016;2022-12-19T18:14:50;14.60;99.90
25360;DHT22;13311;51.386;0.016;2022-12-19T18:19:51;14.60;99.90
25360;DHT22;13311;51.386;0.016;2022-12-19T18:24:52;14.40;99.90
25360;DHT22;13311;51.386;0.016;2022-12-19T18:29:52;14.40;99.90
25360;DHT22;13311;51.386;0.016;2022-12-19T18:34:53;14.40;99.90
25360;DHT22;13311;51.386;0.016;2022-12-19T18:39:54;14.50;99.90
25360;DHT22;13311;51.386;0.016;2022-12-19T18:44:54;14.50;99.90
25360;DHT22;13311;51.386;0.016;2022-12-19T18:49:55;14.50;99.90
25360;DHT22;13311;51.386;0.016;2022-12-19T18:54:56;14.50;99.90
25360;DHT22;13311;51.386;0.016;2022-12-19T18:59:56;14.50;99.90
25360;DHT22;13311;51.386;0.016;2022-12-19T19:04:57;14.40;99.90
25360;DHT22;13311;51.386;0.016;2022-12-19T19:09:58;14.40;99.90
25360;DHT22;13311;51.386;0.016;2022-12-19T19:14:59;14.50;99.90
25360;DHT22;13311;51.386;0.016;2022-12-19T19:20:00;14.40;99.90
25360;DHT22;13311;51.386;0.016;2022-12-19T19:25:02;14.30;99.90
25360;DHT22;13311;51.386;0.016;2022-12-19T19:30:03;14.30;99.90
25360;DHT22;13311;51.386;0.016;2022-12-19T19:35:06;14.20;99.90
25360;DHT22;13311;51.386;0.016;2022-12-19T19:40:09;14.20;99.90
25360;DHT22;13311;51.386;0.016;2022-12-19T19:45:12;14.20;99.90
25360;DHT22;13311;51.386;0.016;2022-12-19T19:50:12;14.20;99.90
25360;DHT22;13311;51.386;0.016;2022-12-19T19:55:13;14.20;99.90
25360;DHT22;13311;51.386;0.016;2022-12-19T20:00:15;14.20;99.90
25360;DHT22;13311;51.386;0.016;2022-12-19T20:05:17;14.20;99.90
25360;DHT22;13311;51.386;0.016;2022-12-19T20:10:17;14.20;99.90
25360;DHT22;13311;51.386;0.016;2022-12-19T20:15:18;14.20;99.90
25360;DHT22;13311;51.386;0.016;2022-12-19T20:20:20;14.20;99.90
25360;DHT22;13311;51.386;0.016;2022-12-19T20:25:21;14.20;99.90
25360;DHT22;13311;51.386;0.016;2022-12-19T20:30:21;14.20;99.90
25360;DHT22;13311;51.386;0.016;2022-12-19T20:35:22;14.30;99.90
25360;DHT22;13311;51.386;0.016;2022-12-19T20:40:23;14.20;99.90
25360;DHT22;13311;51.386;0.016;2022-12-19T20:45:23;14.20;99.90
25360;DHT22;13311;51.386;0.016;2022-12-19T20:50:24;14.10;99.90
25360;DHT22;13311;51.386;0.016;2022-12-19T20:55:25;14.10;99.90
25360;DHT22;13311;51.386;0.016;2022-12-19T21:00:25;14.10;99.90
25360;DHT22;13311;51.386;0.016;2022-12-19T21:05:26;14.20;99.90
25360;DHT22;13311;51.386;0.016;2022-12-19T21:10:27;14.20;99.90
25360;DHT22;13311;51.386;0.016;2022-12-19T21:15:29;14.30;99.90
25360;DHT22;13311;51.386;0.016;2022-12-19T21:20:33;14.20;99.90
25360;DHT22;13311;51.386;0.016;2022-12-19T21:25:34;14.40;99.90
25360;DHT22;13311;51.386;0.016;2022-12-19T21:30:36;14.40;99.90
25360;DHT22;13311;51.386;0.016;2022-12-19T21:35:37;14.40;99.90
25360;DHT22;13311;51.386;0.016;2022-12-19T21:40:38;14.50;99.90
25360;DHT22;13311;51.386;0.016;2022-12-19T21:45:38;14.50;99.90
25360;DHT22;13311;51.386;0.016;2022-12-19T21:50:39;14.50;99.90
25360;DHT22;13311;51.386;0.016;2022-12-19T21:55:40;14.40;99.90
25360;DHT22;13311;51.386;0.016;2022-12-19T22:00:41;14.50;99.90
25360;DHT22;13311;51.386;0.016;2022-12-19T22:05:42;14.60;99.90
25360;DHT22;13311;51.386;0.016;2022-12-19T22:10:42;14.50;99.90
25360;DHT22;13311;51.386;0.016;2022-12-19T22:15:43;14.50;99.90
25360;DHT22;13311;51.386;0.016;2022-12-19T22:20:45;14.50;99.90
25360;DHT22;13311;51.386;0.016;2022-12-19T22:25:47;14.50;99.90
25360;DHT22;13311;51.386;0.016;2022-12-19T22:30:47;14.50;99.90
25360;DHT22;13311;51.386;0.016;2022-12-19T22:35:48;14.50;99.90
25360;DHT22;13311;51.386;0.016;2022-12-19T22:40:49;14.60;99.90
25360;DHT22;13311;51.386;0.016;2022-12-19T22:45:50;14.70;99.90
25360;DHT22;13311;51.386;0.016;2022-12-19T22:50:51;14.70;99.90
25360;DHT22;13311;51.386;0.016;2022-12-19T22:55:51;14.60;99.90
25360;DHT22;13311;51.386;0.016;2022-12-19T23:00:52;14.50;99.90
25360;DHT22;13311;51.386;0.016;2022-12-19T23:05:53;14.60;99.90
25360;DHT22;13311;51.386;0.016;2022-12-19T23:10:54;14.60;99.90
25360;DHT22;13311;51.386;0.016;2022-12-19T23:15:56;14.60;99.90
25360;DHT22;13311;51.386;0.016;2022-12-19T23:21:05;14.60;99.90
25360;DHT22;13311;51.386;0.016;2022-12-19T23:26:10;14.60;99.90
25360;DHT22;13311;51.386;0.016;2022-12-19T23:31:14;14.50;99.90
25360;DHT22;13311;51.386;0.016;2022-12-19T23:36:15;14.50;99.90
25360;DHT22;13311;51.386;0.016;2022-12-19T23:41:15;14.60;99.90
25360;DHT22;13311;51.386;0.016;2022-12-19T23:46:19;14.70;99.90
25360;DHT22;13311;51.386;0.016;2022-12-19T23:51:25;14.60;99.90
25360;DHT22;13311;51.386;0.016;2022-12-19T23:56:30;14.40;99.90
